Fairfield Terrace, South Carolina
Current Conditions -  °F | °C
As of 6:53 PM on Friday 21 Nov 2014 (Local Time) from KCUB Reporting Station
Clear Clear  
Wind Chill: 48°   Ceiling: Unl
Heat Index: 48°   Visibility: 10mi
Dew Point: 32°   Wind: 0mph
Humidity: 54%   Direction: NA
Pressure: 30.44"   Gusts: NA
Location:  34.1179°N, 81.0612°W
Report Text: KCUB 212353Z AUTO 00000KT 10SM CLR 09/00 A3044 RMK AO2 SLP309 T00890000 10178 20089 53018
Loading
Personal Weather Stations






























Interactive Weather Map New forecast layout! Learn more

10-Day Weather Forecast

Advertisements
Track Severe Weather on mobile